Pagina principală
METAR-TAF:

METAR-TAF

Aeroporturi :

Sallisaw, Oklahoma, Statele Unite ale Americii

Latitudine: 35-26-17N, longitudine: 094-48-10W, elevație: 161 m

Observații meteo curente

Raportul a fost făcut în urmă cu 35 de minute, la 21:35 UTC
Vânt 9 kt de la Vest
Temperatură 34°C
Umiditate 50%
Presiune 1014 hPa
Vizibilitate: 16.1 km
Cer senin

METAR: KJSV 222135Z AUTO 26009KT 10SM CLR 34/22 A2995 RMK AO2

Ora: 17:10 (22:10 UTC)


TAF: lipsă

Observații și prognoze meteo pentru peste 4.000 de aeroporturi (rapoarte METAR și TAF).

Stațiile disponibile sunt reprezentate pe hartă prin puncte galbene și roșii.

Țineți indicatorul mouse-ului pe punctul dorit pentru a vedea denumirea stației.

Apoi, faceți clic pentru a vedea observațiile și prognozele meteorologice.

Pentru a schimba harta: Pentru mărire, faceți clic pe butoanele verzi cu cruce neagră; pentru micșorare, pe butonul verde cu o liniuță; pentru hărți învecinate, pe săgețile verzi.


METAR-TAF: